Time;durP1;ratioP1;P1;durP2;ratioP2;P2;SDS_P1;SDS_P2;PMS_P1;PMS_P2;Temp;Humidity;BMP_temperature;BMP_pressure;BME280_temperature;BME280_humidity;BME280_pressure;Samples;Min_cycle;Max_cycle;Signal;HPM_P1;HPM_P2
2023/08/21 00:01:33;;;;;;;0.57;0.30;;;16.40;99.90;;;;;;5082203;28;20105;-71
2023/08/21 00:03:59;;;;;;;0.40;0.20;;;16.30;99.90;;;;;;5081214;28;20044;-71
2023/08/21 00:06:24;;;;;;;0.45;0.20;;;16.30;99.90;;;;;;5078004;28;20028;-71
2023/08/21 00:08:50;;;;;;;0.75;0.30;;;16.20;99.90;;;;;;5073823;28;20513;-71
2023/08/21 00:11:16;;;;;;;0.85;0.35;;;16.30;99.90;;;;;;5077722;28;20451;-71
2023/08/21 00:13:44;;;;;;;1.45;0.50;;;16.30;99.90;;;;;;5069460;28;20032;-72
2023/08/21 00:16:11;;;;;;;1.42;0.55;;;16.20;99.90;;;;;;5056838;28;20028;-71
2023/08/21 00:18:36;;;;;;;1.20;0.60;;;16.20;99.90;;;;;;5081322;28;20036;-71
2023/08/21 00:21:02;;;;;;;1.40;0.60;;;16.20;99.90;;;;;;5075036;28;20082;-71
2023/08/21 00:23:28;;;;;;;2.10;0.70;;;16.10;99.90;;;;;;5071998;28;20354;-71
2023/08/21 00:25:53;;;;;;;2.40;0.73;;;16.10;99.90;;;;;;5066305;28;20090;-71
2023/08/21 00:28:19;;;;;;;1.60;0.50;;;16.10;99.90;;;;;;5074804;28;20127;-71
2023/08/21 00:30:44;;;;;;;2.17;0.70;;;16.10;99.90;;;;;;5070072;28;20407;-71
2023/08/21 00:33:10;;;;;;;1.17;0.60;;;16.10;99.90;;;;;;5081628;28;20047;-71
2023/08/21 00:35:35;;;;;;;2.45;0.68;;;16.10;99.90;;;;;;5057159;28;20055;-71
2023/08/21 00:38:01;;;;;;;3.08;0.50;;;16.10;99.90;;;;;;5077232;28;20032;-71
2023/08/21 00:40:26;;;;;;;0.88;0.45;;;16.00;99.90;;;;;;5076656;28;20579;-71
2023/08/21 00:42:52;;;;;;;1.67;0.50;;;16.00;99.90;;;;;;5076909;28;20042;-72
2023/08/21 00:45:17;;;;;;;4.25;0.70;;;16.00;99.90;;;;;;5076999;28;20082;-71
2023/08/21 00:47:43;;;;;;;1.65;0.65;;;16.00;99.90;;;;;;5089517;28;20047;-71
2023/08/21 00:50:11;;;;;;;4.07;0.70;;;16.00;99.90;;;;;;5081593;28;20101;-71
2023/08/21 00:52:39;;;;;;;1.50;0.63;;;15.90;99.90;;;;;;5077110;28;20115;-71
2023/08/21 00:55:05;;;;;;;2.83;0.85;;;15.90;99.90;;;;;;5074123;28;20044;-71
2023/08/21 00:57:31;;;;;;;1.02;0.40;;;15.90;99.90;;;;;;5075405;28;20040;-71
2023/08/21 00:59:59;;;;;;;1.70;0.50;;;15.80;99.90;;;;;;5077086;28;20058;-71
2023/08/21 01:02:25;;;;;;;2.42;0.65;;;15.80;99.90;;;;;;5057447;28;20040;-71
2023/08/21 01:04:50;;;;;;;0.82;0.57;;;15.80;99.90;;;;;;5061825;28;20589;-71
2023/08/21 01:07:16;;;;;;;1.35;0.60;;;15.80;99.90;;;;;;5068739;28;20051;-71
2023/08/21 01:09:54;;;;;;;1.38;0.65;;;15.80;99.90;;;;;;5082147;28;20123;-71
2023/08/21 01:12:46;;;;;;;0.93;0.43;;;15.80;99.90;;;;;;5070413;28;20043;-71
2023/08/21 01:15:13;;;;;;;1.25;0.57;;;15.70;99.90;;;;;;5075784;28;20413;-71
2023/08/21 01:17:40;;;;;;;0.70;0.40;;;15.70;99.90;;;;;;5076780;28;20457;-71
2023/08/21 01:20:10;;;;;;;3.38;0.50;;;15.70;99.90;;;;;;5114078;27;20409;-72
2023/08/21 01:22:40;;;;;;;0.90;0.50;;;15.70;99.90;;;;;;5073586;28;20041;-71
2023/08/21 01:25:07;;;;;;;1.33;0.57;;;15.70;99.90;;;;;;5074490;28;20485;-72
2023/08/21 01:27:34;;;;;;;1.65;0.50;;;15.70;99.90;;;;;;5055080;28;20059;-71
2023/08/21 01:30:01;;;;;;;2.97;0.85;;;15.70;99.90;;;;;;5077362;28;20494;-71
2023/08/21 01:32:34;;;;;;;1.23;0.57;;;15.60;99.90;;;;;;5079322;28;20340;-71
2023/08/21 01:35:01;;;;;;;1.33;0.47;;;15.60;99.90;;;;;;5071610;28;20075;-71
2023/08/21 01:37:28;;;;;;;1.52;0.70;;;15.60;99.90;;;;;;5074120;28;20049;-71
2023/08/21 01:39:54;;;;;;;2.80;0.60;;;15.60;99.90;;;;;;5079878;28;20051;-72
2023/08/21 01:42:19;;;;;;;1.42;0.50;;;15.50;99.90;;;;;;5077611;28;20234;-71
2023/08/21 01:44:46;;;;;;;1.45;0.47;;;15.50;99.90;;;;;;5076514;28;20509;-72
2023/08/21 01:47:12;;;;;;;1.55;0.68;;;15.50;99.90;;;;;;5076400;28;20521;-71
2023/08/21 01:49:37;;;;;;;2.15;0.80;;;15.40;99.90;;;;;;5081215;28;20361;-72
2023/08/21 01:52:03;;;;;;;1.75;0.63;;;15.40;99.90;;;;;;5079106;28;20086;-72
2023/08/21 01:54:29;;;;;;;0.77;0.45;;;15.40;99.90;;;;;;5079425;28;20036;-71
2023/08/21 01:56:54;;;;;;;3.65;0.90;;;15.40;99.90;;;;;;5074998;28;20478;-71
2023/08/21 01:59:21;;;;;;;0.88;0.50;;;15.40;99.90;;;;;;5073526;28;20155;-72
2023/08/21 02:01:46;;;;;;;0.95;0.50;;;15.40;99.90;;;;;;5075693;28;20097;-71
2023/08/21 02:04:12;;;;;;;1.65;0.55;;;15.40;99.90;;;;;;5109431;28;20066;-71
2023/08/21 02:06:37;;;;;;;1.85;0.50;;;15.30;99.90;;;;;;5081518;28;20032;-72
2023/08/21 02:09:03;;;;;;;0.98;0.43;;;15.30;99.90;;;;;;5080131;28;20035;-72
2023/08/21 02:11:29;;;;;;;3.50;0.60;;;15.30;99.90;;;;;;5076769;28;20032;-72
2023/08/21 02:13:54;;;;;;;0.68;0.40;;;15.30;99.90;;;;;;5073439;28;20051;-71
2023/08/21 02:16:21;;;;;;;1.60;0.40;;;15.30;99.90;;;;;;5079812;28;20082;-72
2023/08/21 02:18:47;;;;;;;2.33;0.60;;;15.30;99.90;;;;;;5085896;28;20044;-72
2023/08/21 02:21:13;;;;;;;1.08;0.55;;;15.20;99.90;;;;;;5082601;28;20371;-72
2023/08/21 02:23:38;;;;;;;0.90;0.55;;;15.20;99.90;;;;;;5079794;28;20300;-71
2023/08/21 02:26:04;;;;;;;3.72;0.52;;;15.20;99.90;;;;;;5114142;27;20036;-71
2023/08/21 02:28:30;;;;;;;2.60;0.70;;;15.20;99.90;;;;;;5076825;28;20437;-71
2023/08/21 02:30:55;;;;;;;1.25;0.60;;;15.20;99.90;;;;;;5082403;28;20468;-71
2023/08/21 02:33:21;;;;;;;1.70;0.60;;;15.20;99.90;;;;;;5074045;28;20094;-71
2023/08/21 02:35:46;;;;;;;1.83;0.47;;;15.20;99.90;;;;;;5080623;28;20032;-71
2023/08/21 02:38:12;;;;;;;0.93;0.47;;;15.10;99.90;;;;;;5077979;28;20436;-72
2023/08/21 02:40:38;;;;;;;1.83;0.57;;;15.10;99.90;;;;;;5077948;28;20033;-71
2023/08/21 02:43:03;;;;;;;1.35;0.60;;;15.10;99.90;;;;;;5075632;28;20040;-71
2023/08/21 02:45:29;;;;;;;0.80;0.30;;;15.00;99.90;;;;;;5060203;28;20040;-71
2023/08/21 02:47:55;;;;;;;0.85;0.40;;;15.00;99.90;;;;;;5078441;28;20088;-72
2023/08/21 02:50:20;;;;;;;1.38;0.50;;;15.00;99.90;;;;;;5079254;28;20036;-71
2023/08/21 02:52:46;;;;;;;1.25;0.30;;;15.00;99.90;;;;;;5082669;28;20449;-71
2023/08/21 02:55:12;;;;;;;0.80;0.40;;;15.00;99.90;;;;;;5071866;28;20024;-71
2023/08/21 02:57:37;;;;;;;0.80;0.30;;;15.00;99.90;;;;;;5073951;28;20034;-72
2023/08/21 03:00:04;;;;;;;1.85;0.47;;;14.90;99.90;;;;;;5081662;28;20393;-72
2023/08/21 03:02:29;;;;;;;1.05;0.38;;;15.00;99.90;;;;;;5081837;28;20035;-71
2023/08/21 03:04:55;;;;;;;1.80;0.40;;;14.90;99.90;;;;;;5079255;28;20032;-71
2023/08/21 03:07:20;;;;;;;0.98;0.40;;;14.90;99.90;;;;;;5084318;28;20040;-72
2023/08/21 03:09:47;;;;;;;0.55;0.30;;;14.90;99.90;;;;;;5078652;28;20028;-71
2023/08/21 03:12:12;;;;;;;3.88;0.40;;;14.80;99.90;;;;;;5076708;28;20083;-72
2023/08/21 03:14:38;;;;;;;1.85;0.63;;;14.80;99.90;;;;;;5079789;28;20067;-72
2023/08/21 03:17:04;;;;;;;0.70;0.30;;;14.80;99.90;;;;;;5058233;28;20123;-72
2023/08/21 03:19:29;;;;;;;1.42;0.50;;;14.80;99.90;;;;;;5079400;28;20104;-71
2023/08/21 03:21:55;;;;;;;0.98;0.50;;;14.80;99.90;;;;;;5076534;28;20047;-71
2023/08/21 03:24:21;;;;;;;0.60;0.30;;;14.80;99.90;;;;;;5079886;28;20036;-72
2023/08/21 03:26:46;;;;;;;1.08;0.30;;;14.80;99.90;;;;;;5076300;28;20367;-71
2023/08/21 03:29:12;;;;;;;1.75;0.52;;;14.80;99.90;;;;;;5073942;28;20032;-71
2023/08/21 03:31:37;;;;;;;0.95;0.32;;;14.70;99.90;;;;;;5115072;27;20505;-72
2023/08/21 03:34:03;;;;;;;0.65;0.35;;;14.70;99.90;;;;;;5080718;28;20043;-71
2023/08/21 03:36:31;;;;;;;2.85;0.60;;;14.70;99.90;;;;;;5081289;28;20062;-71
2023/08/21 03:38:58;;;;;;;0.80;0.50;;;14.70;99.90;;;;;;5059868;28;20040;-71
2023/08/21 03:41:23;;;;;;;3.60;0.80;;;14.70;99.90;;;;;;5076838;28;20139;-72
2023/08/21 03:43:49;;;;;;;0.70;0.32;;;14.70;99.90;;;;;;5078142;28;20044;-71
2023/08/21 03:46:15;;;;;;;0.60;0.25;;;14.70;99.90;;;;;;5078652;28;20490;-71
2023/08/21 03:48:40;;;;;;;1.08;0.40;;;14.70;99.90;;;;;;5081078;28;20035;-71
2023/08/21 03:51:06;;;;;;;0.70;0.50;;;14.60;99.90;;;;;;5080266;28;20519;-72
2023/08/21 03:53:31;;;;;;;0.77;0.47;;;14.60;99.90;;;;;;5078149;28;20044;-72
2023/08/21 03:55:57;;;;;;;0.60;0.30;;;14.60;99.90;;;;;;5075357;28;20097;-71
2023/08/21 03:58:25;;;;;;;0.80;0.50;;;14.60;99.90;;;;;;5056046;28;20028;-71
2023/08/21 04:00:51;;;;;;;1.25;0.52;;;14.60;99.90;;;;;;5082023;28;20081;-71
2023/08/21 04:03:16;;;;;;;0.75;0.40;;;14.60;99.90;;;;;;5084059;28;20047;-72
2023/08/21 04:05:42;;;;;;;1.65;0.60;;;14.50;99.90;;;;;;5079018;28;20063;-71
2023/08/21 04:08:07;;;;;;;1.83;0.60;;;14.50;99.90;;;;;;5054597;28;20502;-72
2023/08/21 04:10:33;;;;;;;1.83;0.45;;;14.50;99.90;;;;;;5076375;28;20456;-71
2023/08/21 04:12:59;;;;;;;1.65;0.52;;;14.50;99.90;;;;;;5074442;28;20111;-71
2023/08/21 04:15:25;;;;;;;1.15;0.43;;;14.50;99.90;;;;;;5071177;28;20085;-71
2023/08/21 04:17:50;;;;;;;1.52;0.70;;;14.50;99.90;;;;;;5078194;28;20470;-71
2023/08/21 04:20:16;;;;;;;1.40;0.57;;;14.50;99.90;;;;;;5080282;28;20040;-71
2023/08/21 04:22:42;;;;;;;1.63;0.60;;;14.50;99.90;;;;;;5077802;28;20036;-72
2023/08/21 04:25:07;;;;;;;1.13;0.70;;;14.50;99.90;;;;;;5076809;28;20581;-72
2023/08/21 04:27:33;;;;;;;2.58;0.60;;;14.50;99.90;;;;;;5077682;28;20056;-72
2023/08/21 04:29:59;;;;;;;0.70;0.40;;;14.50;99.90;;;;;;5082277;28;20044;-71
2023/08/21 04:32:25;;;;;;;1.77;0.43;;;14.50;99.90;;;;;;5079939;28;20074;-71
2023/08/21 04:34:51;;;;;;;2.38;0.40;;;14.50;99.90;;;;;;5077463;28;20043;-71
2023/08/21 04:37:16;;;;;;;1.52;0.50;;;14.40;99.90;;;;;;5078922;28;20410;-71
2023/08/21 04:39:42;;;;;;;0.90;0.50;;;14.40;99.90;;;;;;5077907;28;20043;-71
2023/08/21 04:42:07;;;;;;;2.47;0.88;;;14.40;99.90;;;;;;5076745;28;20118;-72
2023/08/21 04:44:33;;;;;;;2.72;0.40;;;14.40;99.90;;;;;;5075011;28;20273;-72
2023/08/21 04:47:22;;;;;;;1.98;0.40;;;14.40;99.90;;;;;;5076447;28;20082;-71
2023/08/21 04:49:52;;;;;;;2.03;0.50;;;14.40;99.90;;;;;;5094844;28;20044;-71
2023/08/21 04:52:18;;;;;;;0.80;0.38;;;14.40;99.90;;;;;;5074487;28;20605;-72
2023/08/21 04:54:43;;;;;;;2.80;0.45;;;14.40;99.90;;;;;;5074971;28;20037;-71
2023/08/21 04:57:09;;;;;;;1.15;0.55;;;14.40;99.90;;;;;;5077262;28;20544;-72
2023/08/21 04:59:36;;;;;;;1.63;0.57;;;14.40;99.90;;;;;;5077585;28;20052;-71
2023/08/21 05:02:02;;;;;;;5.88;0.73;;;14.30;99.90;;;;;;5077077;28;20490;-71
2023/08/21 05:04:27;;;;;;;1.60;0.45;;;14.30;99.90;;;;;;5076241;28;20545;-72
2023/08/21 05:06:53;;;;;;;0.85;0.40;;;14.30;99.90;;;;;;5077815;28;20046;-72
2023/08/21 05:09:19;;;;;;;0.93;0.43;;;14.30;99.90;;;;;;5059149;28;20093;-72
2023/08/21 05:11:44;;;;;;;1.52;0.70;;;14.30;99.90;;;;;;5072143;28;20044;-72
2023/08/21 05:14:10;;;;;;;1.30;0.50;;;14.40;99.90;;;;;;5072108;28;20046;-71
2023/08/21 05:16:35;;;;;;;0.90;0.52;;;14.40;99.90;;;;;;5079797;28;20111;-72
2023/08/21 05:19:01;;;;;;;3.17;0.52;;;14.40;99.90;;;;;;5076845;28;20178;-71
2023/08/21 05:21:27;;;;;;;1.50;0.68;;;14.40;99.90;;;;;;5077332;28;20047;-72
2023/08/21 05:23:53;;;;;;;2.00;0.60;;;14.40;99.90;;;;;;5074943;28;20032;-72
2023/08/21 05:26:19;;;;;;;1.35;0.52;;;14.40;99.90;;;;;;5076138;28;20048;-72
2023/08/21 05:28:45;;;;;;;0.68;0.50;;;14.50;99.90;;;;;;5071685;28;20345;-72
2023/08/21 05:31:11;;;;;;;1.13;0.63;;;14.50;99.90;;;;;;5073839;28;20081;-72
2023/08/21 05:33:36;;;;;;;2.40;0.68;;;14.50;99.90;;;;;;5070551;28;20028;-72
2023/08/21 05:36:02;;;;;;;2.33;0.55;;;14.50;99.90;;;;;;5076831;28;20509;-71
2023/08/21 05:38:27;;;;;;;2.70;0.60;;;14.50;99.90;;;;;;5077837;28;20071;-71
2023/08/21 05:40:53;;;;;;;1.80;0.57;;;14.50;99.90;;;;;;5090659;28;20028;-71
2023/08/21 05:43:19;;;;;;;3.53;0.70;;;14.60;99.90;;;;;;5083567;28;20040;-71
2023/08/21 05:45:44;;;;;;;2.20;0.70;;;14.60;99.90;;;;;;5108538;27;20085;-72
2023/08/21 05:48:10;;;;;;;3.40;1.25;;;14.60;99.90;;;;;;5077947;28;20040;-72
2023/08/21 05:50:36;;;;;;;2.30;0.80;;;14.60;99.90;;;;;;5089505;28;20219;-72
2023/08/21 05:53:05;;;;;;;1.73;0.50;;;14.60;99.90;;;;;;5077219;28;20047;-72
2023/08/21 05:55:30;;;;;;;1.15;0.60;;;14.70;99.90;;;;;;5073726;28;20032;-72
2023/08/21 05:57:56;;;;;;;2.15;0.88;;;14.70;99.90;;;;;;5077784;28;20040;-72
2023/08/21 06:00:21;;;;;;;2.13;0.80;;;14.70;99.90;;;;;;5083331;28;20112;-72
2023/08/21 06:02:47;;;;;;;1.30;0.60;;;14.80;99.90;;;;;;5071546;28;20503;-72
2023/08/21 06:05:13;;;;;;;1.33;0.65;;;14.80;99.90;;;;;;5080749;28;20047;-72
2023/08/21 06:07:40;;;;;;;3.40;0.82;;;14.80;99.90;;;;;;5076664;28;20039;-72
2023/08/21 06:10:12;;;;;;;2.00;0.88;;;14.90;99.90;;;;;;5081985;28;20055;-72
2023/08/21 06:12:41;;;;;;;1.40;0.73;;;15.00;99.90;;;;;;5079289;28;20041;-72
2023/08/21 06:15:10;;;;;;;2.03;0.68;;;15.00;99.90;;;;;;5073454;28;20071;-72
2023/08/21 06:17:37;;;;;;;2.33;1.10;;;15.10;99.90;;;;;;5083076;28;20032;-71
2023/08/21 06:20:05;;;;;;;1.63;0.68;;;15.10;99.90;;;;;;5085376;28;20073;-72
2023/08/21 06:22:32;;;;;;;1.77;0.70;;;15.10;99.90;;;;;;5072353;28;20043;-72
2023/08/21 06:24:57;;;;;;;3.25;0.82;;;15.20;99.90;;;;;;5093694;27;20386;-72
2023/08/21 06:27:23;;;;;;;4.13;1.10;;;15.20;99.90;;;;;;5084006;28;20040;-71
2023/08/21 06:29:49;;;;;;;3.22;0.93;;;15.30;99.90;;;;;;5078002;28;20046;-72
2023/08/21 06:32:14;;;;;;;2.60;0.60;;;15.30;99.90;;;;;;5077250;28;20075;-72
2023/08/21 06:34:40;;;;;;;1.83;0.93;;;15.40;99.90;;;;;;5078716;28;20031;-72
2023/08/21 06:37:05;;;;;;;2.28;0.80;;;15.50;99.90;;;;;;5074046;28;20081;-72
2023/08/21 06:39:31;;;;;;;2.83;0.90;;;15.50;99.90;;;;;;5075179;28;20036;-72
2023/08/21 06:41:57;;;;;;;2.03;0.82;;;15.60;99.90;;;;;;5073352;28;20036;-72
2023/08/21 06:44:22;;;;;;;2.30;0.70;;;15.70;99.90;;;;;;5057513;28;20035;-72
2023/08/21 06:46:48;;;;;;;1.50;0.75;;;15.70;99.90;;;;;;5079005;28;20032;-72
2023/08/21 06:49:14;;;;;;;1.50;0.60;;;15.80;99.90;;;;;;5078059;28;20535;-73
2023/08/21 06:51:39;;;;;;;5.15;0.95;;;15.90;99.90;;;;;;5071458;28;20493;-73
2023/08/21 06:54:05;;;;;;;2.20;0.80;;;16.00;99.90;;;;;;5079129;28;20042;-73
2023/08/21 06:56:31;;;;;;;1.98;0.70;;;16.10;99.90;;;;;;5081897;28;20136;-73
2023/08/21 06:58:57;;;;;;;4.72;0.88;;;16.20;99.90;;;;;;5079429;28;20039;-73
2023/08/21 07:01:22;;;;;;;3.70;0.95;;;16.30;99.90;;;;;;5079489;28;20039;-73
2023/08/21 07:03:48;;;;;;;4.10;0.80;;;16.40;99.90;;;;;;5076564;28;20537;-73
2023/08/21 07:06:13;;;;;;;3.45;1.00;;;16.50;99.90;;;;;;5074433;28;20440;-73
2023/08/21 07:08:40;;;;;;;1.63;0.60;;;16.60;99.90;;;;;;5059728;28;20455;-73
2023/08/21 07:11:08;;;;;;;2.97;0.90;;;16.60;99.90;;;;;;5078271;28;20058;-73
2023/08/21 07:13:34;;;;;;;3.42;0.98;;;16.70;99.90;;;;;;5076763;28;20051;-72
2023/08/21 07:16:02;;;;;;;3.70;0.80;;;16.80;99.90;;;;;;5108871;27;20644;-72
2023/08/21 07:18:30;;;;;;;3.03;0.82;;;16.80;99.90;;;;;;5079279;28;20426;-72
2023/08/21 07:20:56;;;;;;;4.15;0.95;;;16.90;99.90;;;;;;5079758;28;20027;-73
2023/08/21 07:23:21;;;;;;;2.83;0.70;;;16.90;99.90;;;;;;5061726;28;20096;-73
2023/08/21 07:25:47;;;;;;;1.65;0.60;;;17.00;99.90;;;;;;5081321;28;20486;-73
2023/08/21 07:28:12;;;;;;;3.25;0.63;;;17.10;99.90;;;;;;5079094;28;20497;-73
2023/08/21 07:30:38;;;;;;;5.03;1.13;;;17.10;99.90;;;;;;5075990;28;20468;-73
2023/08/21 07:33:05;;;;;;;3.22;0.75;;;17.20;99.90;;;;;;5080276;28;20040;-73
2023/08/21 07:35:31;;;;;;;1.67;0.45;;;17.20;99.90;;;;;;5054001;28;20524;-73
2023/08/21 07:37:56;;;;;;;2.95;0.95;;;17.20;99.90;;;;;;5076100;28;20032;-73
2023/08/21 07:40:22;;;;;;;3.72;0.75;;;17.30;99.90;;;;;;5079440;28;20040;-73
2023/08/21 07:42:48;;;;;;;3.22;0.57;;;17.30;99.90;;;;;;5077906;28;20044;-73
2023/08/21 07:45:13;;;;;;;3.53;0.80;;;17.40;99.90;;;;;;5080329;28;20042;-73
2023/08/21 07:47:39;;;;;;;1.85;0.70;;;17.40;99.90;;;;;;5078620;28;20032;-73
2023/08/21 07:50:08;;;;;;;2.03;0.52;;;17.40;99.90;;;;;;5075412;28;20501;-73
2023/08/21 07:52:35;;;;;;;2.40;0.70;;;17.50;99.90;;;;;;5060177;28;20043;-73
2023/08/21 07:55:00;;;;;;;2.13;0.63;;;17.60;99.90;;;;;;5072613;28;20040;-73
2023/08/21 07:57:30;;;;;;;5.05;0.90;;;17.60;99.90;;;;;;5077204;28;20521;-73
2023/08/21 07:59:56;;;;;;;2.53;0.68;;;17.70;99.90;;;;;;5074833;28;20115;-73
2023/08/21 08:02:22;;;;;;;3.70;0.70;;;17.70;99.90;;;;;;5078137;28;20142;-71
2023/08/21 08:04:48;;;;;;;4.38;0.57;;;17.80;99.90;;;;;;5072215;28;20047;-73
2023/08/21 08:07:13;;;;;;;1.50;0.50;;;17.80;99.90;;;;;;5049881;28;20040;-73
2023/08/21 08:09:39;;;;;;;2.88;0.60;;;17.90;99.90;;;;;;5056883;28;20136;-73
2023/08/21 08:12:05;;;;;;;1.05;0.40;;;17.90;99.90;;;;;;5076388;28;20441;-73
2023/08/21 08:14:31;;;;;;;2.40;0.65;;;17.90;99.90;;;;;;5079522;28;20112;-73
2023/08/21 08:16:57;;;;;;;0.50;0.40;;;18.00;99.90;;;;;;5077326;28;20071;-73
2023/08/21 08:19:25;;;;;;;4.35;0.73;;;18.00;99.90;;;;;;5073053;28;20039;-73
2023/08/21 08:21:51;;;;;;;1.17;0.70;;;18.00;99.90;;;;;;5072606;28;20032;-73
2023/08/21 08:24:17;;;;;;;1.70;0.43;;;18.10;99.90;;;;;;5075444;28;20040;-73
2023/08/21 08:26:43;;;;;;;2.60;0.60;;;18.20;99.90;;;;;;5075604;28;20043;-71
2023/08/21 08:29:09;;;;;;;2.67;0.70;;;18.20;99.90;;;;;;5074726;28;20028;-72
2023/08/21 08:31:34;;;;;;;2.67;0.50;;;18.20;99.90;;;;;;5077987;28;20043;-73
2023/08/21 08:34:00;;;;;;;1.52;0.50;;;18.20;99.90;;;;;;5073549;28;20033;-73
2023/08/21 08:36:26;;;;;;;1.20;0.50;;;18.30;99.90;;;;;;5073701;28;20033;-73
2023/08/21 08:38:51;;;;;;;3.78;0.85;;;18.30;99.90;;;;;;5079369;28;20424;-73
2023/08/21 08:41:30;;;;;;;3.22;0.60;;;18.40;99.90;;;;;;5074025;28;20226;-73
2023/08/21 08:44:00;;;;;;;3.10;0.70;;;18.40;99.90;;;;;;5074357;28;20081;-73
2023/08/21 08:46:28;;;;;;;1.45;0.50;;;18.50;99.90;;;;;;5058601;28;20058;-74
2023/08/21 08:48:54;;;;;;;1.27;0.55;;;18.50;99.90;;;;;;5074090;28;20493;-73
2023/08/21 08:51:20;;;;;;;2.22;0.40;;;18.60;99.90;;;;;;5075850;28;20445;-73
2023/08/21 08:53:47;;;;;;;1.75;0.60;;;18.60;99.90;;;;;;5078543;28;20039;-73
2023/08/21 08:56:13;;;;;;;4.13;0.70;;;18.70;99.90;;;;;;5108905;27;20049;-73
2023/08/21 08:58:39;;;;;;;1.88;0.38;;;18.70;99.90;;;;;;5075160;28;20032;-73
2023/08/21 09:01:05;;;;;;;2.78;0.82;;;18.80;99.90;;;;;;5074739;28;20405;-74
2023/08/21 09:03:31;;;;;;;1.60;0.57;;;18.80;99.90;;;;;;5071155;28;20044;-73
2023/08/21 09:06:00;;;;;;;0.68;0.40;;;18.90;99.90;;;;;;5071917;28;20054;-73
2023/08/21 09:08:25;;;;;;;2.50;0.52;;;18.90;99.90;;;;;;5069808;28;20498;-74
2023/08/21 09:10:51;;;;;;;1.33;0.55;;;19.00;99.90;;;;;;5070325;28;20082;-73
2023/08/21 09:13:19;;;;;;;1.63;0.50;;;19.00;99.90;;;;;;5103805;27;20085;-73
2023/08/21 09:15:47;;;;;;;1.02;0.35;;;19.10;99.90;;;;;;5076065;28;20036;-73
2023/08/21 09:18:14;;;;;;;2.80;0.38;;;19.10;99.90;;;;;;5103396;27;20442;-77
2023/08/21 09:20:40;;;;;;;4.35;0.50;;;19.10;99.90;;;;;;5077694;28;20338;-72
2023/08/21 09:23:06;;;;;;;0.73;0.28;;;19.20;99.90;;;;;;5082113;28;20043;-72
2023/08/21 09:25:37;;;;;;;0.80;0.32;;;19.20;99.90;;;;;;5071311;28;20067;-76
2023/08/21 09:28:07;;;;;;;0.90;0.47;;;19.20;99.90;;;;;;5076528;28;20524;-74
2023/08/21 09:30:51;;;;;;;1.77;0.30;;;19.30;99.90;;;;;;5073452;28;20040;-74
2023/08/21 09:33:21;;;;;;;3.30;0.75;;;19.30;99.90;;;;;;5070598;28;20048;-74
2023/08/21 09:35:47;;;;;;;1.42;0.43;;;19.40;99.90;;;;;;5069934;28;20313;-75
2023/08/21 09:38:14;;;;;;;0.75;0.30;;;19.40;99.90;;;;;;5072702;28;20458;-74
2023/08/21 09:40:49;;;;;;;1.52;0.40;;;19.40;99.90;;;;;;5079853;28;20068;-74
2023/08/21 09:43:15;;;;;;;2.80;0.70;;;19.50;99.90;;;;;;5075457;28;20047;-73
2023/08/21 09:45:40;;;;;;;3.30;0.50;;;19.60;99.90;;;;;;5083131;28;20409;-73
2023/08/21 09:48:07;;;;;;;1.50;0.43;;;19.60;99.90;;;;;;5058172;28;20052;-72
2023/08/21 09:50:33;;;;;;;1.42;0.50;;;19.60;99.90;;;;;;5075973;28;20477;-72
2023/08/21 09:52:59;;;;;;;2.88;0.57;;;19.70;99.90;;;;;;5070740;28;20478;-72
2023/08/21 09:55:29;;;;;;;3.72;0.40;;;19.70;99.90;;;;;;5058844;28;20097;-71
2023/08/21 09:57:59;;;;;;;0.82;0.40;;;19.70;99.90;;;;;;5083379;28;20036;-72
2023/08/21 10:00:32;;;;;;;0.85;0.30;;;19.70;99.90;;;;;;5085744;28;20037;-72
2023/08/21 10:03:03;;;;;;;2.42;0.60;;;19.80;99.90;;;;;;5086151;28;20043;-72
2023/08/21 10:05:31;;;;;;;1.98;0.50;;;19.80;99.90;;;;;;5082240;28;20044;-72
2023/08/21 10:08:01;;;;;;;1.17;0.40;;;19.90;99.90;;;;;;5079883;28;20039;-72
2023/08/21 10:10:32;;;;;;;2.75;0.60;;;20.00;99.90;;;;;;5064509;28;20051;-71
2023/08/21 10:12:59;;;;;;;1.58;0.30;;;20.00;99.90;;;;;;5074775;28;20052;-72
2023/08/21 10:15:25;;;;;;;2.67;0.60;;;20.00;99.90;;;;;;5068988;28;20136;-72
2023/08/21 10:17:51;;;;;;;1.58;0.55;;;20.10;99.90;;;;;;5079666;28;20500;-72
2023/08/21 10:20:23;;;;;;;1.58;0.50;;;20.10;99.90;;;;;;5078865;28;20119;-72
2023/08/21 10:22:49;;;;;;;2.35;0.45;;;20.10;99.90;;;;;;5104020;27;20051;-72
2023/08/21 10:25:21;;;;;;;1.15;0.30;;;20.10;99.90;;;;;;5078671;28;20529;-73
2023/08/21 10:27:50;;;;;;;1.73;0.40;;;20.10;99.90;;;;;;5082612;28;20096;-73
2023/08/21 10:30:23;;;;;;;1.85;0.50;;;20.20;99.90;;;;;;5079494;28;20134;-72
2023/08/21 10:32:50;;;;;;;0.60;0.32;;;20.20;99.90;;;;;;5077297;28;20052;-72
2023/08/21 10:35:19;;;;;;;2.30;0.70;;;20.20;99.90;;;;;;5076598;28;20039;-72
2023/08/21 10:38:16;;;;;;;1.15;0.40;;;20.30;99.90;;;;;;5075935;28;20074;-72
2023/08/21 10:41:06;;;;;;;2.35;0.50;;;20.40;99.90;;;;;;5080995;28;20036;-72
2023/08/21 10:43:39;;;;;;;0.80;0.30;;;20.40;99.90;;;;;;5076897;28;20089;-73
2023/08/21 10:46:06;;;;;;;1.65;0.60;;;20.50;99.90;;;;;;5079608;28;20040;-72
2023/08/21 10:48:31;;;;;;;1.60;0.50;;;20.50;99.90;;;;;;5082084;28;20562;-72
2023/08/21 10:51:00;;;;;;;1.95;0.45;;;20.60;99.90;;;;;;5084392;28;20048;-72
2023/08/21 10:53:27;;;;;;;1.02;0.40;;;20.60;99.90;;;;;;5074829;28;20452;-72
2023/08/21 10:55:54;;;;;;;2.42;0.60;;;20.60;99.90;;;;;;5080505;28;20056;-72
2023/08/21 10:58:20;;;;;;;2.20;0.47;;;20.60;99.90;;;;;;5077991;28;20510;-72
2023/08/21 11:00:45;;;;;;;1.20;0.50;;;20.60;99.90;;;;;;5076876;28;20051;-72
2023/08/21 11:03:11;;;;;;;2.58;0.55;;;20.60;99.90;;;;;;5093908;28;20066;-71
2023/08/21 11:05:37;;;;;;;0.65;0.30;;;20.70;99.90;;;;;;5077971;28;20044;-72
2023/08/21 11:08:02;;;;;;;1.20;0.60;;;20.70;99.90;;;;;;5079595;28;20408;-72
2023/08/21 11:10:31;;;;;;;1.08;0.30;;;20.70;99.90;;;;;;5078022;28;20044;-72
2023/08/21 11:12:59;;;;;;;5.53;0.60;;;20.70;99.90;;;;;;5076783;28;20105;-72
2023/08/21 11:15:26;;;;;;;2.47;0.32;;;20.80;99.90;;;;;;5081082;28;20040;-72
2023/08/21 11:18:02;;;;;;;1.95;0.50;;;20.80;99.90;;;;;;5076817;28;20040;-72
2023/08/21 11:20:35;;;;;;;0.55;0.30;;;20.70;99.90;;;;;;5061087;28;20079;-72
2023/08/21 11:23:06;;;;;;;1.52;0.60;;;20.70;99.90;;;;;;5058231;28;20036;-72
2023/08/21 11:25:32;;;;;;;5.07;0.60;;;20.70;99.90;;;;;;5093004;28;20771;-72
2023/08/21 11:27:58;;;;;;;1.55;0.70;;;20.70;99.90;;;;;;5071612;28;20063;-72
2023/08/21 11:30:24;;;;;;;2.45;0.68;;;20.70;99.90;;;;;;5079921;28;20039;-72
2023/08/21 11:33:11;;;;;;;1.02;0.52;;;20.80;99.90;;;;;;5079796;28;20043;-72
2023/08/21 11:35:40;;;;;;;2.30;0.57;;;20.90;99.90;;;;;;5071450;28;20032;-72
2023/08/21 11:38:13;;;;;;;1.70;0.55;;;20.90;99.90;;;;;;5076977;28;20036;-72
2023/08/21 11:40:38;;;;;;;0.60;0.40;;;21.00;99.90;;;;;;5079739;28;20506;-72
2023/08/21 11:43:05;;;;;;;1.23;0.47;;;21.00;99.90;;;;;;5080827;28;20055;-72
2023/08/21 11:45:31;;;;;;;2.35;0.80;;;21.00;99.90;;;;;;5084835;28;20039;-72
2023/08/21 11:47:56;;;;;;;2.13;0.80;;;20.90;99.90;;;;;;5078296;28;20033;-72
2023/08/21 11:50:22;;;;;;;1.40;0.70;;;20.90;99.90;;;;;;5078736;28;20085;-72
2023/08/21 11:52:52;;;;;;;1.10;0.50;;;20.90;99.90;;;;;;5111581;27;20126;-72
2023/08/21 11:55:17;;;;;;;1.73;0.50;;;21.00;99.90;;;;;;5078432;28;20064;-72
2023/08/21 11:57:50;;;;;;;1.85;0.60;;;21.10;99.90;;;;;;5079637;28;20162;-72
2023/08/21 12:00:25;;;;;;;1.20;0.60;;;21.10;99.90;;;;;;5087175;28;20086;-72
2023/08/21 12:02:59;;;;;;;1.52;0.63;;;21.10;99.90;;;;;;5084590;28;20486;-72
2023/08/21 12:05:26;;;;;;;1.75;0.55;;;21.00;99.90;;;;;;5078594;28;20060;-75
2023/08/21 12:07:52;;;;;;;3.28;0.60;;;21.00;99.90;;;;;;5094275;28;20036;-72
2023/08/21 12:10:29;;;;;;;1.00;0.40;;;20.90;99.90;;;;;;5081354;28;20564;-72
2023/08/21 12:12:55;;;;;;;0.63;0.40;;;21.00;99.90;;;;;;5080393;28;20098;-72
2023/08/21 12:15:21;;;;;;;1.30;0.40;;;21.00;99.90;;;;;;5081619;28;20036;-72
2023/08/21 12:17:47;;;;;;;0.82;0.45;;;21.00;99.90;;;;;;5093290;28;20464;-72
2023/08/21 12:20:13;;;;;;;0.95;0.40;;;21.10;99.90;;;;;;5077096;28;20024;-72
2023/08/21 12:22:39;;;;;;;2.65;0.50;;;21.10;99.90;;;;;;5076918;28;20074;-72
2023/08/21 12:25:07;;;;;;;2.78;0.45;;;21.20;99.90;;;;;;5064664;28;20503;-72
2023/08/21 12:27:32;;;;;;;1.42;0.60;;;21.30;99.90;;;;;;5074599;28;20564;-72
2023/08/21 12:29:58;;;;;;;0.98;0.50;;;21.40;99.90;;;;;;5110285;27;20044;-72
2023/08/21 12:32:24;;;;;;;1.23;0.50;;;21.50;99.90;;;;;;5078361;28;20075;-72
2023/08/21 12:34:49;;;;;;;1.38;0.52;;;21.70;99.90;;;;;;5073469;28;20123;-72
2023/08/21 12:37:16;;;;;;;2.97;0.50;;;21.80;99.90;;;;;;5072338;28;20052;-72
2023/08/21 12:39:41;;;;;;;1.48;0.50;;;21.80;99.90;;;;;;5077632;28;20044;-72
2023/08/21 12:42:10;;;;;;;1.75;0.68;;;21.80;99.90;;;;;;5080012;28;20028;-72
2023/08/21 12:44:35;;;;;;;3.10;0.70;;;21.80;99.90;;;;;;5079291;28;20032;-72
2023/08/21 12:47:01;;;;;;;3.38;0.60;;;21.90;99.90;;;;;;5058628;28;20038;-72